Pagrindinis puslapis
METAR-TAF:

METAR-TAF

Oro uostai :

Mogiliavas, Baltarusija

platuma: 53-57-18N, ilguma: 030-05-42E, Aukštis: 194 m

Dabartinis oras

Ataskaita buvo paskelbta 1 valandą ir 28 minutes, ne 12:00 UTC
Vėjas 21 kt iš Šiaurės/Šiaurės Rytų su gūsio iki 27 kt
Temperatūra 10°C
Drėgmė 62%
Slėgis 1013 hPa
Matomumas 10 km arba daugiau
Su prošvaistėmis ne aukštis 2500 ft
Apsiniaukę

METAR: UMOO 011200Z 02011G14MPS 9999 BKN025 OVC/// 10/03 Q1013 R31/CLRD// NOSIG

Laikas: 16:28 (13:28 UTC)

Prognozė

Ataskaita buvo paskelbta 2 valandos ir 27 minutes, ne 11:01 UTC
Prognozė galioja nuo 01 metu 12 UTC su 01 metu 21 UTC
Vėjas 14 kt iš Šiaurės/Šiaurės Rytų su gūsio iki 23 kt
Matomumas 10 km arba daugiau
Su prošvaistėmis ne aukštis 2500 ft
Laikinai
nuo 01 metu 12 UTC su 01 metu 21 UTC
Vėjas 21 kt iš Šiaurės su gūsio iki 31 kt
Matomumas: 3000 m
Su prošvaistėmis ne aukštis 700 ft
Su prošvaistėmis ne aukštis 2000 ft, Liūtiniai kamuoliniai debesys.
lietus

TAF: UMOO 011101Z 0112/0121 02007G12MPS 9999 BKN025 TEMPO 0112/0121 36011G16MPS 3000 -SHRA BKN007 BKN020CB

Orai ataskaitas ir orų prognozės (METAR, TAF).

turimą stotys yra geltonos ir raudonos taškus žemėlapyje.

Perkelti pele per norėdami pamatyti stoties vardą.

Tada spustelėkite, norėdami matyti oro stebėjimo ir prognozės.

Norėdami pakeisti žemėlapį: spustelėkite ant žalios mygtukų su juodo kryžiaus žemyn,; žalią mygtuką su brūkšneliu, jei norite nutolinti; arba žalių rodyklių gretimoms žemėlapius.


METAR-TAF: